createdAt,value
2023-05-15T00:00:29.499Z,0.30
2023-05-15T00:02:57.170Z,0.40
2023-05-15T00:05:24.226Z,0.30
2023-05-15T00:07:50.813Z,0.30
2023-05-15T00:10:17.232Z,0.20
2023-05-15T00:12:43.591Z,0.20
2023-05-15T00:15:10.228Z,0.30
2023-05-15T00:17:36.641Z,0.30
2023-05-15T00:20:04.826Z,0.30
2023-05-15T00:22:31.155Z,0.30
2023-05-15T00:24:59.119Z,0.30
2023-05-15T00:27:26.579Z,0.30
2023-05-15T00:29:52.968Z,0.20
2023-05-15T00:32:19.358Z,0.20
2023-05-15T00:34:45.720Z,0.30
2023-05-15T00:37:12.154Z,0.30
2023-05-15T00:39:38.500Z,0.20
2023-05-15T00:42:05.530Z,0.20
2023-05-15T00:44:32.117Z,0.20
2023-05-15T00:46:59.353Z,0.30
2023-05-15T00:49:27.577Z,0.30
2023-05-15T00:51:54.163Z,0.30
2023-05-15T00:54:20.786Z,0.28
2023-05-15T00:56:47.810Z,0.20
2023-05-15T00:59:14.617Z,0.40
2023-05-15T01:01:41.260Z,0.30
2023-05-15T01:04:07.651Z,0.30
2023-05-15T01:06:34.017Z,0.30
2023-05-15T01:09:04.478Z,0.20
2023-05-15T01:11:36.027Z,0.30
2023-05-15T01:14:03.696Z,0.30
2023-05-15T01:16:30.081Z,0.20
2023-05-15T01:18:56.528Z,0.30
2023-05-15T01:21:31.908Z,0.30
2023-05-15T01:24:18.180Z,0.20
2023-05-15T01:26:53.549Z,0.30
2023-05-15T01:29:27.232Z,0.20
2023-05-15T01:31:57.256Z,0.30
2023-05-15T01:34:27.170Z,0.20
2023-05-15T01:36:54.752Z,0.20
2023-05-15T01:39:23.167Z,0.20
2023-05-15T01:41:52.198Z,0.30
2023-05-15T01:44:21.048Z,0.30
2023-05-15T01:46:50.139Z,0.22
2023-05-15T01:49:18.575Z,0.20
2023-05-15T01:51:46.233Z,0.30
2023-05-15T01:54:13.367Z,0.25
2023-05-15T01:56:40.571Z,0.30
2023-05-15T01:59:07.258Z,0.20
2023-05-15T02:01:34.535Z,0.20
2023-05-15T02:04:01.995Z,0.30
2023-05-15T02:06:29.639Z,0.30
2023-05-15T02:08:57.567Z,0.30
2023-05-15T02:11:24.269Z,0.28
2023-05-15T02:13:51.681Z,0.40
2023-05-15T02:16:18.165Z,0.30
2023-05-15T02:18:44.690Z,0.28
2023-05-15T02:21:11.454Z,0.20
2023-05-15T02:23:39.179Z,0.30
2023-05-15T02:26:12.680Z,0.30
2023-05-15T02:28:43.221Z,0.20
2023-05-15T02:31:14.222Z,0.20
2023-05-15T02:33:50.685Z,0.20
2023-05-15T02:36:20.232Z,0.20
2023-05-15T02:38:48.880Z,0.20
2023-05-15T02:41:16.285Z,0.20
2023-05-15T02:43:43.589Z,0.20
2023-05-15T02:46:10.595Z,0.28
2023-05-15T02:48:39.545Z,0.20
2023-05-15T02:51:06.391Z,0.30
2023-05-15T02:53:33.390Z,0.30
2023-05-15T02:56:00.706Z,0.30
2023-05-15T02:58:27.089Z,0.22
2023-05-15T03:00:53.645Z,0.22
2023-05-15T03:03:20.051Z,0.30
2023-05-15T03:05:46.384Z,0.30
2023-05-15T03:08:12.810Z,0.40
2023-05-15T03:10:39.150Z,0.52
2023-05-15T03:13:05.520Z,0.63
2023-05-15T03:15:32.020Z,0.40
2023-05-15T03:17:58.453Z,0.30
2023-05-15T03:20:24.950Z,0.30
2023-05-15T03:22:51.279Z,0.30
2023-05-15T03:25:17.690Z,0.32
2023-05-15T03:27:44.061Z,0.43
2023-05-15T03:30:10.655Z,0.40
2023-05-15T03:32:37.073Z,0.28
2023-05-15T03:35:04.228Z,0.45
2023-05-15T03:37:30.610Z,0.47
2023-05-15T03:39:59.027Z,0.43
2023-05-15T03:42:25.547Z,0.30
2023-05-15T03:44:52.070Z,0.32
2023-05-15T03:47:18.855Z,0.30
2023-05-15T03:49:45.925Z,0.38
2023-05-15T03:52:12.406Z,0.57
2023-05-15T03:54:38.868Z,0.50
2023-05-15T03:57:05.653Z,0.38
2023-05-15T03:59:32.033Z,0.68
2023-05-15T04:02:04.849Z,0.82
2023-05-15T04:04:31.965Z,0.67
2023-05-15T04:06:58.345Z,0.40
2023-05-15T04:09:24.737Z,0.38
2023-05-15T04:11:51.136Z,0.50
2023-05-15T04:14:17.511Z,0.50
2023-05-15T04:16:44.011Z,0.30
2023-05-15T04:19:10.587Z,0.35
2023-05-15T04:21:37.014Z,0.22
2023-05-15T04:24:03.452Z,0.30
2023-05-15T04:26:29.872Z,0.30
2023-05-15T04:31:29.201Z,0.32
2023-05-15T04:33:55.920Z,0.50
2023-05-15T04:36:22.869Z,0.68
2023-05-15T04:38:49.260Z,0.50
2023-05-15T04:41:15.753Z,0.45
2023-05-15T04:43:42.124Z,0.30
2023-05-15T04:46:08.573Z,0.20
2023-05-15T04:48:34.934Z,0.40
2023-05-15T04:51:01.268Z,0.30
2023-05-15T04:53:27.670Z,0.33
2023-05-15T04:55:54.049Z,0.55
2023-05-15T04:58:20.385Z,0.50
2023-05-15T05:00:46.803Z,0.60
2023-05-15T05:03:13.271Z,1.60
2023-05-15T05:05:39.754Z,1.83
2023-05-15T05:08:06.135Z,0.60
2023-05-15T05:10:32.511Z,0.60
2023-05-15T05:12:58.895Z,0.85
2023-05-15T05:15:25.530Z,0.40
2023-05-15T05:17:52.813Z,0.40
2023-05-15T05:20:19.319Z,0.30
2023-05-15T05:22:45.661Z,0.38
2023-05-15T05:25:12.077Z,1.23
2023-05-15T05:27:38.465Z,2.00
2023-05-15T05:30:05.060Z,0.50
2023-05-15T05:32:31.460Z,0.30
2023-05-15T05:34:57.853Z,0.40
2023-05-15T05:37:24.470Z,0.35
2023-05-15T05:39:50.827Z,0.32
2023-05-15T05:42:17.156Z,0.60
2023-05-15T05:44:43.580Z,0.43
2023-05-15T05:47:10.029Z,0.50
2023-05-15T05:49:36.392Z,0.47
2023-05-15T05:52:07.412Z,0.68
2023-05-15T05:54:34.815Z,0.63
2023-05-15T05:57:01.220Z,1.45
2023-05-15T05:59:27.591Z,1.17
2023-05-15T06:01:54.058Z,0.70
2023-05-15T06:04:21.125Z,0.55
2023-05-15T06:06:47.509Z,0.50
2023-05-15T06:09:13.891Z,0.40
2023-05-15T06:11:40.365Z,0.30
2023-05-15T06:14:08.368Z,0.60
2023-05-15T06:16:35.080Z,0.50
2023-05-15T06:19:01.750Z,0.40
2023-05-15T06:21:28.208Z,0.30
2023-05-15T06:23:54.571Z,0.55
2023-05-15T06:26:21.885Z,0.32
2023-05-15T06:28:48.275Z,0.65
2023-05-15T06:31:14.643Z,0.50
2023-05-15T06:33:41.265Z,0.50
2023-05-15T06:36:07.732Z,0.50
2023-05-15T06:38:34.257Z,0.40
2023-05-15T06:41:00.650Z,0.40
2023-05-15T06:43:27.021Z,0.77
2023-05-15T06:45:54.327Z,0.65
2023-05-15T06:48:20.769Z,0.60
2023-05-15T06:50:47.206Z,0.65
2023-05-15T06:53:14.599Z,0.70
2023-05-15T06:55:41.146Z,0.40
2023-05-15T06:58:07.548Z,0.57
2023-05-15T07:00:33.903Z,0.63
2023-05-15T07:03:00.308Z,0.38
2023-05-15T07:05:26.937Z,0.60
2023-05-15T07:07:53.600Z,0.30
2023-05-15T07:10:20.022Z,0.43
2023-05-15T07:12:46.467Z,0.45
2023-05-15T07:15:12.872Z,0.50
2023-05-15T07:17:39.377Z,0.47
2023-05-15T07:20:06.135Z,0.90
2023-05-15T07:22:32.921Z,0.93
2023-05-15T07:25:02.782Z,0.55
2023-05-15T07:27:29.160Z,0.90
2023-05-15T07:29:56.519Z,2.63
2023-05-15T07:32:22.888Z,6.13
2023-05-15T07:34:49.329Z,4.82
2023-05-15T07:37:16.870Z,1.75
2023-05-15T07:39:43.514Z,0.70
2023-05-15T07:42:09.978Z,0.40
2023-05-15T07:44:36.307Z,1.73
2023-05-15T07:47:02.675Z,7.53
2023-05-15T07:49:29.149Z,1.95
2023-05-15T07:51:55.619Z,2.95
2023-05-15T07:54:22.009Z,0.50
2023-05-15T07:56:48.376Z,0.40
2023-05-15T07:59:14.865Z,4.43
2023-05-15T08:01:41.274Z,8.00
2023-05-15T08:04:08.854Z,6.22
2023-05-15T08:06:36.997Z,10.98
2023-05-15T08:09:04.120Z,12.13
2023-05-15T08:11:30.528Z,8.80
2023-05-15T08:13:56.900Z,7.93
2023-05-15T08:16:23.395Z,5.07
2023-05-15T08:18:53.156Z,10.50
2023-05-15T08:21:19.620Z,10.02
2023-05-15T08:23:46.057Z,11.25
2023-05-15T08:26:12.398Z,9.63
2023-05-15T08:28:38.816Z,9.43
2023-05-15T08:31:05.229Z,8.73
2023-05-15T08:33:31.571Z,10.47
2023-05-15T08:35:58.541Z,10.75
2023-05-15T08:38:25.021Z,8.95
2023-05-15T08:40:52.813Z,9.10
2023-05-15T08:43:21.086Z,7.22
2023-05-15T08:45:47.887Z,3.50
2023-05-15T08:48:16.218Z,4.90
2023-05-15T08:50:44.217Z,0.38
2023-05-15T08:53:12.058Z,5.75
2023-05-15T08:55:38.417Z,5.93
2023-05-15T08:58:05.926Z,6.43
2023-05-15T09:00:32.891Z,6.05
2023-05-15T09:03:00.408Z,5.10
2023-05-15T09:05:28.044Z,6.60
2023-05-15T09:07:54.915Z,5.53
2023-05-15T09:10:21.868Z,5.73
2023-05-15T09:12:50.412Z,6.75
2023-05-15T09:15:18.052Z,6.35
2023-05-15T09:17:45.271Z,5.03
2023-05-15T09:20:20.672Z,5.63
2023-05-15T09:22:47.544Z,6.10
2023-05-15T09:25:31.922Z,6.28
2023-05-15T09:27:58.314Z,4.45
2023-05-15T09:30:26.400Z,1.42
2023-05-15T09:32:54.685Z,1.67
2023-05-15T09:35:30.253Z,1.23
2023-05-15T09:37:59.774Z,0.77
2023-05-15T09:40:28.570Z,0.57
2023-05-15T09:42:54.934Z,0.40
2023-05-15T09:45:21.387Z,0.40
2023-05-15T09:47:47.938Z,0.40
2023-05-15T09:50:20.174Z,0.57
2023-05-15T09:52:46.567Z,0.68
2023-05-15T09:55:16.484Z,1.52
2023-05-15T09:57:43.207Z,0.50
2023-05-15T10:00:11.968Z,0.60
2023-05-15T10:02:41.532Z,2.03
2023-05-15T10:05:08.135Z,1.38
2023-05-15T10:07:35.573Z,2.45
2023-05-15T10:10:02.877Z,0.80
2023-05-15T10:12:31.227Z,0.80
2023-05-15T10:14:58.469Z,0.50
2023-05-15T10:17:25.872Z,0.65
2023-05-15T10:19:58.554Z,1.80
2023-05-15T10:22:26.746Z,0.50
2023-05-15T10:24:59.543Z,3.53
2023-05-15T10:27:26.475Z,0.90
2023-05-15T10:29:53.460Z,0.77
2023-05-15T10:32:20.023Z,0.80
2023-05-15T10:34:46.534Z,0.60
2023-05-15T10:37:14.336Z,0.63
2023-05-15T10:39:41.874Z,0.70
2023-05-15T10:42:08.365Z,0.65
2023-05-15T10:44:34.736Z,0.93
2023-05-15T10:47:01.205Z,0.80
2023-05-15T10:49:27.759Z,0.87
2023-05-15T10:51:54.204Z,0.98
2023-05-15T10:54:21.809Z,0.65
2023-05-15T10:56:49.940Z,0.60
2023-05-15T10:59:17.841Z,0.50
2023-05-15T11:01:44.294Z,0.70
2023-05-15T11:04:11.932Z,0.98
2023-05-15T11:06:39.608Z,0.70
2023-05-15T11:09:15.029Z,0.65
2023-05-15T11:11:50.661Z,0.60
2023-05-15T11:14:17.161Z,0.30
2023-05-15T11:16:52.520Z,0.60
2023-05-15T11:19:23.360Z,0.60
2023-05-15T11:21:57.746Z,0.68
2023-05-15T11:24:28.799Z,0.57
2023-05-15T11:26:59.574Z,0.50
2023-05-15T11:29:26.117Z,0.55
2023-05-15T11:31:52.458Z,0.63
2023-05-15T11:34:29.241Z,0.50
2023-05-15T11:36:55.602Z,0.50
2023-05-15T11:39:24.457Z,0.63
2023-05-15T11:41:50.837Z,0.50
2023-05-15T11:44:24.583Z,0.50
2023-05-15T11:46:51.472Z,0.70
2023-05-15T11:49:19.363Z,0.60
2023-05-15T11:51:47.632Z,1.60
2023-05-15T11:54:14.393Z,1.00
2023-05-15T11:56:43.479Z,0.90
2023-05-15T11:59:12.165Z,0.93
2023-05-15T12:01:39.204Z,1.08
2023-05-15T12:04:11.799Z,1.00
2023-05-15T12:06:38.294Z,0.85
2023-05-15T12:09:04.924Z,0.90
2023-05-15T12:11:31.736Z,0.98
2023-05-15T12:13:58.077Z,0.60
2023-05-15T12:16:26.061Z,0.70
2023-05-15T12:18:52.776Z,1.00
2023-05-15T12:21:19.217Z,0.80
2023-05-15T12:24:06.281Z,1.08
2023-05-15T12:26:33.925Z,0.77
2023-05-15T12:29:00.447Z,1.10
2023-05-15T12:31:26.861Z,1.05
2023-05-15T12:33:53.250Z,1.40
2023-05-15T12:36:21.094Z,1.10
2023-05-15T12:38:48.292Z,0.85
2023-05-15T12:41:14.740Z,1.10
2023-05-15T12:43:41.369Z,1.00
2023-05-15T12:46:07.954Z,1.20
2023-05-15T12:48:36.032Z,1.00
2023-05-15T12:51:07.047Z,0.88
2023-05-15T12:53:34.448Z,0.68
2023-05-15T12:56:01.112Z,0.90
2023-05-15T12:58:27.920Z,0.70
2023-05-15T13:00:54.842Z,0.70
2023-05-15T13:03:22.121Z,0.90
2023-05-15T13:05:48.587Z,1.00
2023-05-15T13:08:16.325Z,0.73
2023-05-15T13:10:42.978Z,0.80
2023-05-15T13:13:09.381Z,0.95
2023-05-15T13:15:37.613Z,0.80
2023-05-15T13:18:06.262Z,0.82
2023-05-15T13:20:34.005Z,0.95
2023-05-15T13:23:01.263Z,0.65
2023-05-15T13:25:28.801Z,0.50
2023-05-15T13:27:58.181Z,1.08
2023-05-15T13:30:25.014Z,1.10
2023-05-15T13:32:54.643Z,0.80
2023-05-15T13:35:22.081Z,0.70
2023-05-15T13:37:48.490Z,0.77
2023-05-15T13:40:15.328Z,0.73
2023-05-15T13:42:42.175Z,0.67
2023-05-15T13:45:09.428Z,0.50
2023-05-15T13:47:35.956Z,0.45
2023-05-15T13:50:02.815Z,0.80
2023-05-15T13:52:29.208Z,0.80
2023-05-15T13:54:55.736Z,0.60
2023-05-15T13:57:22.508Z,0.68
2023-05-15T13:59:49.140Z,0.70
2023-05-15T14:02:15.678Z,0.80
2023-05-15T14:04:42.076Z,0.80
2023-05-15T14:07:08.447Z,0.80
2023-05-15T14:09:34.987Z,0.60
2023-05-15T14:12:01.364Z,0.60
2023-05-15T14:14:28.639Z,0.63
2023-05-15T14:16:55.011Z,0.70
2023-05-15T14:19:21.519Z,0.60
2023-05-15T14:21:48.969Z,0.70
2023-05-15T14:24:15.413Z,0.85
2023-05-15T14:26:43.641Z,1.00
2023-05-15T14:29:10.073Z,1.00
2023-05-15T14:31:36.470Z,0.90
2023-05-15T14:34:02.981Z,0.80
2023-05-15T14:36:30.247Z,0.70
2023-05-15T14:38:58.210Z,0.45
2023-05-15T14:41:26.703Z,0.77
2023-05-15T14:43:53.146Z,0.70
2023-05-15T14:46:19.640Z,0.80
2023-05-15T14:48:46.082Z,0.60
2023-05-15T14:51:12.490Z,0.63
2023-05-15T14:53:39.644Z,0.70
2023-05-15T14:56:06.646Z,0.60
2023-05-15T14:58:33.006Z,0.70
2023-05-15T15:00:59.365Z,0.90
2023-05-15T15:03:28.631Z,0.77
2023-05-15T15:05:55.922Z,0.60
2023-05-15T15:08:22.375Z,0.80
2023-05-15T15:10:48.778Z,0.60
2023-05-15T15:13:16.456Z,0.50
2023-05-15T15:15:42.818Z,0.38
2023-05-15T15:18:09.212Z,0.38
2023-05-15T15:20:35.669Z,0.45
2023-05-15T15:23:03.082Z,0.50
2023-05-15T15:25:31.472Z,0.57
2023-05-15T15:27:59.168Z,0.50
2023-05-15T15:30:26.145Z,0.60
2023-05-15T15:32:54.628Z,0.52
2023-05-15T15:35:21.181Z,0.40
2023-05-15T15:37:47.539Z,0.30
2023-05-15T15:40:13.953Z,0.30
2023-05-15T15:42:40.363Z,0.30
2023-05-15T15:45:07.016Z,0.57
2023-05-15T15:47:33.433Z,0.70
2023-05-15T15:49:59.873Z,0.30
2023-05-15T15:52:26.366Z,0.65
2023-05-15T15:54:52.844Z,0.35
2023-05-15T15:57:19.763Z,0.47
2023-05-15T15:59:46.350Z,0.38
2023-05-15T16:02:13.007Z,0.43
2023-05-15T16:04:39.476Z,0.50
2023-05-15T16:07:06.110Z,0.40
2023-05-15T16:09:32.551Z,0.35
2023-05-15T16:11:59.039Z,0.40
2023-05-15T16:14:27.829Z,0.47
2023-05-15T16:16:54.933Z,0.20
2023-05-15T16:19:21.757Z,0.35
2023-05-15T16:21:49.246Z,0.40
2023-05-15T16:24:15.722Z,0.40
2023-05-15T16:26:42.106Z,0.43
2023-05-15T16:29:08.445Z,0.40
2023-05-15T16:31:35.588Z,0.40
2023-05-15T16:34:03.653Z,0.47
2023-05-15T16:36:31.305Z,0.30
2023-05-15T16:38:58.251Z,0.30
2023-05-15T16:41:26.303Z,0.50
2023-05-15T16:43:52.658Z,0.40
2023-05-15T16:46:19.070Z,0.38
2023-05-15T16:48:45.552Z,0.47
2023-05-15T16:51:11.911Z,0.30
2023-05-15T16:53:38.275Z,0.45
2023-05-15T16:56:04.823Z,0.47
2023-05-15T16:58:31.162Z,0.50
2023-05-15T17:00:57.520Z,0.50
2023-05-15T17:03:24.068Z,0.35
2023-05-15T17:05:51.305Z,0.43
2023-05-15T17:08:17.682Z,0.45
2023-05-15T17:10:44.046Z,0.30
2023-05-15T17:13:10.447Z,0.47
2023-05-15T17:15:36.797Z,0.47
2023-05-15T17:18:03.245Z,0.63
2023-05-15T17:20:29.687Z,0.50
2023-05-15T17:22:56.044Z,0.60
2023-05-15T17:25:22.476Z,0.60
2023-05-15T17:27:48.834Z,0.50
2023-05-15T17:30:15.324Z,0.50
2023-05-15T17:32:41.786Z,0.68
2023-05-15T17:35:08.425Z,0.93
2023-05-15T17:37:34.775Z,0.82
2023-05-15T17:40:01.368Z,0.55
2023-05-15T17:42:28.442Z,0.47
2023-05-15T17:44:56.333Z,0.52
2023-05-15T17:47:23.032Z,0.47
2023-05-15T17:49:49.401Z,0.63
2023-05-15T17:52:16.047Z,1.23
2023-05-15T17:54:42.406Z,1.23
2023-05-15T17:57:08.762Z,0.60
2023-05-15T17:59:35.247Z,0.37
2023-05-15T18:02:02.161Z,1.10
2023-05-15T18:04:28.593Z,0.75
2023-05-15T18:06:54.949Z,0.90
2023-05-15T18:09:24.017Z,0.77
2023-05-15T18:11:51.030Z,1.13
2023-05-15T18:14:17.511Z,1.50
2023-05-15T18:16:43.936Z,1.05
2023-05-15T18:19:10.473Z,1.10
2023-05-15T18:21:37.970Z,0.73
2023-05-15T18:24:04.906Z,0.87
2023-05-15T18:26:31.333Z,1.10
2023-05-15T18:28:57.797Z,0.95
2023-05-15T18:31:24.268Z,0.85
2023-05-15T18:33:50.643Z,1.13
2023-05-15T18:36:17.017Z,0.83
2023-05-15T18:38:43.400Z,2.85
2023-05-15T18:41:09.755Z,3.40
2023-05-15T18:43:36.639Z,0.90
2023-05-15T18:46:03.941Z,0.90
2023-05-15T18:48:30.684Z,0.97
2023-05-15T18:50:57.121Z,1.00
2023-05-15T18:53:23.537Z,0.82
2023-05-15T18:55:49.888Z,0.98
2023-05-15T18:58:16.287Z,1.05
2023-05-15T19:00:42.626Z,1.80
2023-05-15T19:03:09.167Z,1.85
2023-05-15T19:05:35.806Z,2.38
2023-05-15T19:08:02.823Z,6.90
2023-05-15T19:10:30.379Z,7.93
2023-05-15T19:12:57.114Z,9.30
2023-05-15T19:15:24.715Z,2.88
2023-05-15T19:17:51.763Z,1.88
2023-05-15T19:20:18.406Z,5.95
2023-05-15T19:22:44.862Z,5.45
2023-05-15T19:25:11.557Z,0.80
2023-05-15T19:27:37.946Z,1.58
2023-05-15T19:30:06.797Z,2.35
2023-05-15T19:32:33.456Z,3.10
2023-05-15T19:35:00.140Z,4.70
2023-05-15T19:37:26.489Z,6.18
2023-05-15T19:39:52.881Z,5.97
2023-05-15T19:42:19.284Z,3.13
2023-05-15T19:44:45.704Z,2.75
2023-05-15T19:47:12.104Z,2.30
2023-05-15T19:49:38.698Z,4.23
2023-05-15T19:52:05.370Z,3.40
2023-05-15T19:54:31.740Z,3.15
2023-05-15T19:56:58.640Z,2.55
2023-05-15T19:59:25.091Z,2.08
2023-05-15T20:01:51.475Z,1.80
2023-05-15T20:04:17.910Z,2.45
2023-05-15T20:06:44.283Z,6.05
2023-05-15T20:09:10.751Z,6.78
2023-05-15T20:11:37.085Z,7.32
2023-05-15T20:14:03.458Z,6.90
2023-05-15T20:16:29.901Z,6.25
2023-05-15T20:18:57.207Z,5.50
2023-05-15T20:21:23.543Z,10.63
2023-05-15T20:23:49.870Z,12.15
2023-05-15T20:26:16.201Z,10.63
2023-05-15T20:28:45.162Z,8.75
2023-05-15T20:31:11.996Z,10.52
2023-05-15T20:33:38.517Z,9.98
2023-05-15T20:36:05.306Z,7.88
2023-05-15T20:38:33.656Z,6.68
2023-05-15T20:41:00.154Z,8.10
2023-05-15T20:43:26.754Z,9.70
2023-05-15T20:45:53.255Z,8.40
2023-05-15T20:48:19.677Z,1.08
2023-05-15T20:50:46.235Z,3.35
2023-05-15T20:53:13.211Z,6.20
2023-05-15T20:55:39.599Z,6.57
2023-05-15T20:58:05.949Z,6.53
2023-05-15T21:00:32.301Z,5.85
2023-05-15T21:02:58.764Z,5.40
2023-05-15T21:05:25.197Z,1.90
2023-05-15T21:07:51.558Z,1.63
2023-05-15T21:10:17.957Z,1.17
2023-05-15T21:12:44.361Z,1.02
2023-05-15T21:15:11.113Z,0.90
2023-05-15T21:17:37.500Z,2.10
2023-05-15T21:20:04.933Z,1.50
2023-05-15T21:22:31.348Z,1.17
2023-05-15T21:24:57.745Z,0.95
2023-05-15T21:27:24.233Z,1.00
2023-05-15T21:29:50.990Z,0.93
2023-05-15T21:32:17.403Z,1.35
2023-05-15T21:34:43.754Z,0.80
2023-05-15T21:37:10.083Z,1.20
2023-05-15T21:39:36.416Z,1.13
2023-05-15T21:42:02.779Z,1.05
2023-05-15T21:44:29.158Z,1.30
2023-05-15T21:46:56.713Z,1.15
2023-05-15T21:49:23.074Z,0.68
2023-05-15T21:51:49.468Z,1.20
2023-05-15T21:54:15.810Z,1.30
2023-05-15T21:56:42.152Z,1.40
2023-05-15T21:59:10.396Z,1.15
2023-05-15T22:01:36.852Z,1.10
2023-05-15T22:04:03.331Z,1.47
2023-05-15T22:06:29.715Z,1.20
2023-05-15T22:08:57.537Z,1.50
2023-05-15T22:11:23.890Z,1.27
2023-05-15T22:13:50.264Z,1.15
2023-05-15T22:16:16.744Z,1.00
2023-05-15T22:18:45.172Z,0.98
2023-05-15T22:21:11.988Z,1.10
2023-05-15T22:23:38.349Z,1.00
2023-05-15T22:26:04.781Z,1.20
2023-05-15T22:28:31.118Z,1.10
2023-05-15T22:30:57.467Z,1.40
2023-05-15T22:33:24.464Z,0.90
2023-05-15T22:35:53.112Z,1.20
2023-05-15T22:38:19.792Z,0.82
2023-05-15T22:40:50.184Z,1.03
2023-05-15T22:43:16.570Z,1.33
2023-05-15T22:45:42.966Z,0.93
2023-05-15T22:48:09.453Z,1.77
2023-05-15T22:50:36.731Z,1.95
2023-05-15T22:53:03.184Z,1.80
2023-05-15T22:55:29.563Z,1.30
2023-05-15T22:57:56.062Z,1.70
2023-05-15T23:00:22.472Z,1.70
2023-05-15T23:02:48.879Z,1.40
2023-05-15T23:05:15.254Z,1.57
2023-05-15T23:07:41.581Z,1.30
2023-05-15T23:10:08.447Z,1.27
2023-05-15T23:12:34.786Z,1.00
2023-05-15T23:15:01.624Z,1.20
2023-05-15T23:17:28.056Z,1.57
2023-05-15T23:19:54.426Z,1.58
2023-05-15T23:22:20.915Z,1.55
2023-05-15T23:24:47.339Z,1.20
2023-05-15T23:27:13.735Z,1.10
2023-05-15T23:29:40.136Z,1.07
2023-05-15T23:32:06.955Z,1.02
2023-05-15T23:34:33.337Z,1.25
2023-05-15T23:36:59.671Z,1.08
2023-05-15T23:39:26.031Z,0.88
2023-05-15T23:41:52.392Z,0.90
2023-05-15T23:44:18.880Z,0.88
2023-05-15T23:46:45.390Z,0.60
2023-05-15T23:49:11.806Z,1.05
2023-05-15T23:51:38.165Z,0.98
2023-05-15T23:54:05.292Z,1.10
2023-05-15T23:56:31.760Z,0.93
2023-05-15T23:58:58.136Z,0.88
